sensor_id;sensor_type;location;lat;lon;timestamp;P1;durP1;ratioP1;P2;durP2;ratioP2
9413;SDS011;4746;35.664;139.738;2023-06-22T00:01:20;8.90;;;2.88;;
9413;SDS011;4746;35.664;139.738;2023-06-22T00:03:48;11.85;;;4.32;;
9413;SDS011;4746;35.664;139.738;2023-06-22T00:06:16;10.65;;;4.18;;
9413;SDS011;4746;35.664;139.738;2023-06-22T00:08:43;8.10;;;3.25;;
9413;SDS011;4746;35.664;139.738;2023-06-22T00:11:11;8.85;;;3.60;;
9413;SDS011;4746;35.664;139.738;2023-06-22T00:13:38;8.55;;;3.75;;
9413;SDS011;4746;35.664;139.738;2023-06-22T00:16:06;7.45;;;3.67;;
9413;SDS011;4746;35.664;139.738;2023-06-22T00:18:34;9.68;;;3.72;;
9413;SDS011;4746;35.664;139.738;2023-06-22T00:21:01;11.25;;;3.90;;
9413;SDS011;4746;35.664;139.738;2023-06-22T00:23:30;5.80;;;3.33;;
9413;SDS011;4746;35.664;139.738;2023-06-22T00:25:59;9.48;;;3.60;;
9413;SDS011;4746;35.664;139.738;2023-06-22T00:28:28;6.10;;;2.60;;
9413;SDS011;4746;35.664;139.738;2023-06-22T00:30:56;7.18;;;3.17;;
9413;SDS011;4746;35.664;139.738;2023-06-22T00:33:23;8.15;;;3.50;;
9413;SDS011;4746;35.664;139.738;2023-06-22T00:35:51;5.10;;;2.30;;
9413;SDS011;4746;35.664;139.738;2023-06-22T00:38:19;8.23;;;3.63;;
9413;SDS011;4746;35.664;139.738;2023-06-22T00:40:46;11.82;;;3.85;;
9413;SDS011;4746;35.664;139.738;2023-06-22T00:43:14;10.98;;;3.45;;
9413;SDS011;4746;35.664;139.738;2023-06-22T00:45:41;6.50;;;3.22;;
9413;SDS011;4746;35.664;139.738;2023-06-22T00:48:09;4.93;;;4.18;;
9413;SDS011;4746;35.664;139.738;2023-06-22T00:50:39;7.85;;;4.22;;
9413;SDS011;4746;35.664;139.738;2023-06-22T00:53:08;6.90;;;4.32;;
9413;SDS011;4746;35.664;139.738;2023-06-22T00:55:37;5.88;;;3.15;;
9413;SDS011;4746;35.664;139.738;2023-06-22T00:58:09;6.43;;;2.60;;
9413;SDS011;4746;35.664;139.738;2023-06-22T01:00:39;5.35;;;2.92;;
9413;SDS011;4746;35.664;139.738;2023-06-22T01:03:07;4.90;;;3.15;;
9413;SDS011;4746;35.664;139.738;2023-06-22T01:05:36;5.35;;;2.72;;
9413;SDS011;4746;35.664;139.738;2023-06-22T01:11:13;2.63;;;2.40;;
9413;SDS011;4746;35.664;139.738;2023-06-22T01:14:05;4.40;;;2.95;;
9413;SDS011;4746;35.664;139.738;2023-06-22T01:16:43;6.70;;;3.10;;
9413;SDS011;4746;35.664;139.738;2023-06-22T01:19:35;6.50;;;2.80;;
9413;SDS011;4746;35.664;139.738;2023-06-22T01:22:25;6.38;;;3.47;;
9413;SDS011;4746;35.664;139.738;2023-06-22T01:25:12;5.28;;;3.15;;
9413;SDS011;4746;35.664;139.738;2023-06-22T01:30:46;6.85;;;2.08;;
9413;SDS011;4746;35.664;139.738;2023-06-22T01:33:28;3.75;;;1.77;;
9413;SDS011;4746;35.664;139.738;2023-06-22T01:36:00;4.82;;;2.35;;
9413;SDS011;4746;35.664;139.738;2023-06-22T01:38:30;7.20;;;1.80;;
9413;SDS011;4746;35.664;139.738;2023-06-22T01:40:59;5.20;;;2.45;;
9413;SDS011;4746;35.664;139.738;2023-06-22T01:43:28;4.88;;;2.50;;
9413;SDS011;4746;35.664;139.738;2023-06-22T01:45:57;7.25;;;2.53;;
9413;SDS011;4746;35.664;139.738;2023-06-22T01:48:29;5.15;;;2.00;;
9413;SDS011;4746;35.664;139.738;2023-06-22T01:50:58;5.43;;;2.35;;
9413;SDS011;4746;35.664;139.738;2023-06-22T01:53:25;2.60;;;2.30;;
9413;SDS011;4746;35.664;139.738;2023-06-22T01:55:53;5.72;;;2.47;;
9413;SDS011;4746;35.664;139.738;2023-06-22T01:58:23;5.85;;;2.25;;
9413;SDS011;4746;35.664;139.738;2023-06-22T02:01:02;4.95;;;2.17;;
9413;SDS011;4746;35.664;139.738;2023-06-22T02:03:41;4.00;;;2.70;;
9413;SDS011;4746;35.664;139.738;2023-06-22T02:06:27;5.90;;;2.80;;
9413;SDS011;4746;35.664;139.738;2023-06-22T02:09:04;4.88;;;2.47;;
9413;SDS011;4746;35.664;139.738;2023-06-22T02:11:37;5.40;;;2.88;;
9413;SDS011;4746;35.664;139.738;2023-06-22T02:14:10;8.07;;;2.97;;
9413;SDS011;4746;35.664;139.738;2023-06-22T02:16:40;5.25;;;2.78;;
9413;SDS011;4746;35.664;139.738;2023-06-22T02:19:08;3.20;;;2.10;;
9413;SDS011;4746;35.664;139.738;2023-06-22T02:21:36;3.60;;;2.33;;
9413;SDS011;4746;35.664;139.738;2023-06-22T02:24:04;6.30;;;2.35;;
9413;SDS011;4746;35.664;139.738;2023-06-22T02:26:31;3.70;;;2.92;;
9413;SDS011;4746;35.664;139.738;2023-06-22T02:29:00;6.35;;;2.92;;
9413;SDS011;4746;35.664;139.738;2023-06-22T02:31:27;4.28;;;3.13;;
9413;SDS011;4746;35.664;139.738;2023-06-22T02:33:59;5.22;;;2.60;;
9413;SDS011;4746;35.664;139.738;2023-06-22T02:36:26;5.65;;;3.00;;
9413;SDS011;4746;35.664;139.738;2023-06-22T02:38:55;5.65;;;3.85;;
9413;SDS011;4746;35.664;139.738;2023-06-22T02:41:24;3.88;;;2.83;;
9413;SDS011;4746;35.664;139.738;2023-06-22T02:43:51;5.78;;;3.92;;
9413;SDS011;4746;35.664;139.738;2023-06-22T02:46:19;8.40;;;4.60;;
9413;SDS011;4746;35.664;139.738;2023-06-22T02:48:47;7.85;;;4.60;;
9413;SDS011;4746;35.664;139.738;2023-06-22T02:51:15;6.18;;;5.25;;
9413;SDS011;4746;35.664;139.738;2023-06-22T02:53:42;8.32;;;5.38;;
9413;SDS011;4746;35.664;139.738;2023-06-22T02:56:10;6.82;;;4.75;;
9413;SDS011;4746;35.664;139.738;2023-06-22T02:58:38;5.43;;;4.80;;
9413;SDS011;4746;35.664;139.738;2023-06-22T03:01:06;5.85;;;5.30;;
9413;SDS011;4746;35.664;139.738;2023-06-22T03:03:33;7.50;;;6.00;;
9413;SDS011;4746;35.664;139.738;2023-06-22T03:06:01;8.98;;;6.18;;
9413;SDS011;4746;35.664;139.738;2023-06-22T03:08:28;6.82;;;5.43;;
9413;SDS011;4746;35.664;139.738;2023-06-22T03:10:56;7.43;;;5.65;;
9413;SDS011;4746;35.664;139.738;2023-06-22T03:13:23;9.05;;;6.30;;
9413;SDS011;4746;35.664;139.738;2023-06-22T03:15:53;8.10;;;6.50;;
9413;SDS011;4746;35.664;139.738;2023-06-22T03:18:21;8.02;;;5.97;;
9413;SDS011;4746;35.664;139.738;2023-06-22T03:20:48;7.38;;;6.38;;
9413;SDS011;4746;35.664;139.738;2023-06-22T03:23:17;6.18;;;5.50;;
9413;SDS011;4746;35.664;139.738;2023-06-22T03:25:45;6.57;;;4.85;;
9413;SDS011;4746;35.664;139.738;2023-06-22T03:28:13;8.35;;;5.43;;
9413;SDS011;4746;35.664;139.738;2023-06-22T03:30:40;7.78;;;5.00;;
9413;SDS011;4746;35.664;139.738;2023-06-22T03:33:08;5.88;;;4.90;;
9413;SDS011;4746;35.664;139.738;2023-06-22T03:35:35;6.00;;;5.32;;
9413;SDS011;4746;35.664;139.738;2023-06-22T03:38:03;5.85;;;4.65;;
9413;SDS011;4746;35.664;139.738;2023-06-22T03:40:31;6.30;;;4.90;;
9413;SDS011;4746;35.664;139.738;2023-06-22T03:42:58;6.15;;;4.72;;
9413;SDS011;4746;35.664;139.738;2023-06-22T03:45:26;6.50;;;5.07;;
9413;SDS011;4746;35.664;139.738;2023-06-22T03:47:53;6.40;;;5.03;;
9413;SDS011;4746;35.664;139.738;2023-06-22T03:50:21;7.68;;;5.13;;
9413;SDS011;4746;35.664;139.738;2023-06-22T03:52:48;4.50;;;4.10;;
9413;SDS011;4746;35.664;139.738;2023-06-22T03:55:19;6.18;;;4.88;;
9413;SDS011;4746;35.664;139.738;2023-06-22T03:57:46;6.78;;;5.07;;
9413;SDS011;4746;35.664;139.738;2023-06-22T04:00:14;7.13;;;5.15;;
9413;SDS011;4746;35.664;139.738;2023-06-22T04:02:42;6.25;;;4.53;;
9413;SDS011;4746;35.664;139.738;2023-06-22T04:05:09;6.55;;;4.28;;
9413;SDS011;4746;35.664;139.738;2023-06-22T04:07:37;5.40;;;4.90;;
9413;SDS011;4746;35.664;139.738;2023-06-22T04:10:05;7.78;;;4.55;;
9413;SDS011;4746;35.664;139.738;2023-06-22T04:12:33;6.97;;;4.50;;
9413;SDS011;4746;35.664;139.738;2023-06-22T04:15:01;5.07;;;4.32;;
9413;SDS011;4746;35.664;139.738;2023-06-22T04:17:30;5.53;;;3.92;;
9413;SDS011;4746;35.664;139.738;2023-06-22T04:19:58;5.03;;;4.13;;
9413;SDS011;4746;35.664;139.738;2023-06-22T04:22:26;4.75;;;4.20;;
9413;SDS011;4746;35.664;139.738;2023-06-22T04:24:53;5.70;;;4.53;;
9413;SDS011;4746;35.664;139.738;2023-06-22T04:27:25;5.43;;;4.40;;
9413;SDS011;4746;35.664;139.738;2023-06-22T04:29:52;7.20;;;4.80;;
9413;SDS011;4746;35.664;139.738;2023-06-22T04:32:20;6.82;;;5.05;;
9413;SDS011;4746;35.664;139.738;2023-06-22T04:34:47;6.93;;;4.95;;
9413;SDS011;4746;35.664;139.738;2023-06-22T04:37:15;8.88;;;5.25;;
9413;SDS011;4746;35.664;139.738;2023-06-22T04:39:42;5.75;;;4.90;;
9413;SDS011;4746;35.664;139.738;2023-06-22T04:42:11;4.97;;;4.43;;
9413;SDS011;4746;35.664;139.738;2023-06-22T04:44:39;6.95;;;4.82;;
9413;SDS011;4746;35.664;139.738;2023-06-22T04:47:07;5.20;;;4.63;;
9413;SDS011;4746;35.664;139.738;2023-06-22T04:49:35;6.50;;;4.22;;
9413;SDS011;4746;35.664;139.738;2023-06-22T04:52:10;6.75;;;5.53;;
9413;SDS011;4746;35.664;139.738;2023-06-22T04:54:43;5.85;;;4.38;;
9413;SDS011;4746;35.664;139.738;2023-06-22T04:57:13;5.75;;;4.30;;
9413;SDS011;4746;35.664;139.738;2023-06-22T04:59:41;7.20;;;4.93;;
9413;SDS011;4746;35.664;139.738;2023-06-22T05:02:09;5.93;;;4.93;;
9413;SDS011;4746;35.664;139.738;2023-06-22T05:04:37;7.82;;;4.55;;
9413;SDS011;4746;35.664;139.738;2023-06-22T05:07:04;5.97;;;4.55;;
9413;SDS011;4746;35.664;139.738;2023-06-22T05:09:32;7.28;;;4.85;;
9413;SDS011;4746;35.664;139.738;2023-06-22T05:12:02;6.88;;;5.32;;
9413;SDS011;4746;35.664;139.738;2023-06-22T05:14:30;5.90;;;5.18;;
9413;SDS011;4746;35.664;139.738;2023-06-22T05:16:57;6.95;;;4.80;;
9413;SDS011;4746;35.664;139.738;2023-06-22T05:19:29;7.63;;;5.13;;
9413;SDS011;4746;35.664;139.738;2023-06-22T05:21:58;7.22;;;4.30;;
9413;SDS011;4746;35.664;139.738;2023-06-22T05:24:26;7.55;;;4.57;;
9413;SDS011;4746;35.664;139.738;2023-06-22T05:26:53;5.97;;;4.82;;
9413;SDS011;4746;35.664;139.738;2023-06-22T05:29:21;8.32;;;4.95;;
9413;SDS011;4746;35.664;139.738;2023-06-22T05:31:49;5.32;;;4.55;;
9413;SDS011;4746;35.664;139.738;2023-06-22T05:34:16;6.35;;;4.55;;
9413;SDS011;4746;35.664;139.738;2023-06-22T05:36:44;5.45;;;4.40;;
9413;SDS011;4746;35.664;139.738;2023-06-22T05:39:12;6.32;;;4.68;;
9413;SDS011;4746;35.664;139.738;2023-06-22T05:41:40;7.35;;;5.45;;
9413;SDS011;4746;35.664;139.738;2023-06-22T05:44:08;5.30;;;4.28;;
9413;SDS011;4746;35.664;139.738;2023-06-22T05:46:36;6.65;;;4.65;;
9413;SDS011;4746;35.664;139.738;2023-06-22T05:49:12;4.80;;;4.40;;
9413;SDS011;4746;35.664;139.738;2023-06-22T05:51:41;6.95;;;4.10;;
9413;SDS011;4746;35.664;139.738;2023-06-22T05:54:09;6.65;;;5.25;;
9413;SDS011;4746;35.664;139.738;2023-06-22T05:56:38;4.45;;;4.00;;
9413;SDS011;4746;35.664;139.738;2023-06-22T05:59:07;6.95;;;4.78;;
9413;SDS011;4746;35.664;139.738;2023-06-22T06:01:35;6.30;;;4.50;;
9413;SDS011;4746;35.664;139.738;2023-06-22T06:04:02;5.75;;;4.50;;
9413;SDS011;4746;35.664;139.738;2023-06-22T06:06:30;5.78;;;4.60;;
9413;SDS011;4746;35.664;139.738;2023-06-22T06:09:00;7.03;;;4.72;;
9413;SDS011;4746;35.664;139.738;2023-06-22T06:11:28;5.65;;;4.90;;
9413;SDS011;4746;35.664;139.738;2023-06-22T06:13:55;6.68;;;5.45;;
9413;SDS011;4746;35.664;139.738;2023-06-22T06:16:23;6.13;;;5.60;;
9413;SDS011;4746;35.664;139.738;2023-06-22T06:18:50;5.90;;;5.15;;
9413;SDS011;4746;35.664;139.738;2023-06-22T06:21:20;6.93;;;5.55;;
9413;SDS011;4746;35.664;139.738;2023-06-22T06:23:48;6.47;;;5.05;;
9413;SDS011;4746;35.664;139.738;2023-06-22T06:26:15;5.55;;;5.05;;
9413;SDS011;4746;35.664;139.738;2023-06-22T06:28:43;7.13;;;6.03;;
9413;SDS011;4746;35.664;139.738;2023-06-22T06:31:12;6.05;;;5.43;;
9413;SDS011;4746;35.664;139.738;2023-06-22T06:33:42;6.13;;;5.63;;
9413;SDS011;4746;35.664;139.738;2023-06-22T06:36:10;8.10;;;6.55;;
9413;SDS011;4746;35.664;139.738;2023-06-22T06:38:37;8.02;;;6.72;;
9413;SDS011;4746;35.664;139.738;2023-06-22T06:41:05;8.57;;;6.88;;
9413;SDS011;4746;35.664;139.738;2023-06-22T06:43:32;9.13;;;6.72;;
9413;SDS011;4746;35.664;139.738;2023-06-22T06:46:02;7.63;;;6.40;;
9413;SDS011;4746;35.664;139.738;2023-06-22T06:48:30;6.75;;;6.00;;
9413;SDS011;4746;35.664;139.738;2023-06-22T06:50:57;8.10;;;6.43;;
9413;SDS011;4746;35.664;139.738;2023-06-22T06:53:25;8.27;;;6.85;;
9413;SDS011;4746;35.664;139.738;2023-06-22T06:55:54;8.68;;;7.15;;
9413;SDS011;4746;35.664;139.738;2023-06-22T06:58:22;8.05;;;7.20;;
9413;SDS011;4746;35.664;139.738;2023-06-22T07:00:49;10.75;;;7.70;;
9413;SDS011;4746;35.664;139.738;2023-06-22T07:03:17;10.88;;;8.50;;
9413;SDS011;4746;35.664;139.738;2023-06-22T07:05:44;9.00;;;7.97;;
9413;SDS011;4746;35.664;139.738;2023-06-22T07:08:14;9.27;;;7.88;;
9413;SDS011;4746;35.664;139.738;2023-06-22T07:10:41;8.55;;;7.60;;
9413;SDS011;4746;35.664;139.738;2023-06-22T07:13:09;8.15;;;7.45;;
9413;SDS011;4746;35.664;139.738;2023-06-22T07:15:37;9.10;;;7.45;;
9413;SDS011;4746;35.664;139.738;2023-06-22T07:18:04;9.57;;;7.93;;
9413;SDS011;4746;35.664;139.738;2023-06-22T07:20:32;9.13;;;7.57;;
9413;SDS011;4746;35.664;139.738;2023-06-22T07:23:00;9.02;;;8.02;;
9413;SDS011;4746;35.664;139.738;2023-06-22T07:25:28;11.40;;;9.40;;
9413;SDS011;4746;35.664;139.738;2023-06-22T07:28:03;10.13;;;8.10;;
9413;SDS011;4746;35.664;139.738;2023-06-22T07:30:33;8.68;;;7.88;;
9413;SDS011;4746;35.664;139.738;2023-06-22T07:33:01;8.73;;;7.90;;
9413;SDS011;4746;35.664;139.738;2023-06-22T07:35:30;8.80;;;7.38;;
9413;SDS011;4746;35.664;139.738;2023-06-22T07:37:58;11.00;;;8.45;;
9413;SDS011;4746;35.664;139.738;2023-06-22T07:40:26;10.90;;;7.90;;
9413;SDS011;4746;35.664;139.738;2023-06-22T07:42:56;9.40;;;8.15;;
9413;SDS011;4746;35.664;139.738;2023-06-22T07:45:24;9.68;;;8.05;;
9413;SDS011;4746;35.664;139.738;2023-06-22T07:47:51;9.68;;;8.52;;
9413;SDS011;4746;35.664;139.738;2023-06-22T07:50:19;9.00;;;8.30;;
9413;SDS011;4746;35.664;139.738;2023-06-22T07:52:46;9.77;;;7.30;;
9413;SDS011;4746;35.664;139.738;2023-06-22T07:55:14;8.55;;;7.75;;
9413;SDS011;4746;35.664;139.738;2023-06-22T07:57:41;9.43;;;7.15;;
9413;SDS011;4746;35.664;139.738;2023-06-22T08:00:09;8.50;;;7.70;;
9413;SDS011;4746;35.664;139.738;2023-06-22T08:02:41;9.82;;;8.20;;
9413;SDS011;4746;35.664;139.738;2023-06-22T08:05:11;9.20;;;8.32;;
9413;SDS011;4746;35.664;139.738;2023-06-22T08:07:40;9.63;;;7.55;;
9413;SDS011;4746;35.664;139.738;2023-06-22T08:10:12;9.70;;;7.85;;
9413;SDS011;4746;35.664;139.738;2023-06-22T08:12:40;9.30;;;7.70;;
9413;SDS011;4746;35.664;139.738;2023-06-22T08:15:08;9.60;;;7.85;;
9413;SDS011;4746;35.664;139.738;2023-06-22T08:17:36;9.05;;;8.15;;
9413;SDS011;4746;35.664;139.738;2023-06-22T08:20:05;10.80;;;9.57;;
9413;SDS011;4746;35.664;139.738;2023-06-22T08:22:39;9.38;;;8.57;;
9413;SDS011;4746;35.664;139.738;2023-06-22T08:25:10;10.15;;;9.15;;
9413;SDS011;4746;35.664;139.738;2023-06-22T08:27:38;10.05;;;9.05;;
9413;SDS011;4746;35.664;139.738;2023-06-22T08:30:06;10.70;;;9.70;;
9413;SDS011;4746;35.664;139.738;2023-06-22T08:32:36;9.20;;;8.40;;
9413;SDS011;4746;35.664;139.738;2023-06-22T08:35:04;9.98;;;9.00;;
9413;SDS011;4746;35.664;139.738;2023-06-22T08:37:34;13.55;;;10.30;;
9413;SDS011;4746;35.664;139.738;2023-06-22T08:40:05;10.73;;;9.63;;
9413;SDS011;4746;35.664;139.738;2023-06-22T08:42:36;11.10;;;10.05;;
9413;SDS011;4746;35.664;139.738;2023-06-22T08:45:04;10.88;;;9.80;;
9413;SDS011;4746;35.664;139.738;2023-06-22T08:47:32;9.50;;;8.68;;
9413;SDS011;4746;35.664;139.738;2023-06-22T08:49:59;10.60;;;9.57;;
9413;SDS011;4746;35.664;139.738;2023-06-22T08:52:30;9.15;;;8.25;;
9413;SDS011;4746;35.664;139.738;2023-06-22T08:54:57;10.20;;;8.35;;
9413;SDS011;4746;35.664;139.738;2023-06-22T08:57:25;11.48;;;9.88;;
9413;SDS011;4746;35.664;139.738;2023-06-22T08:59:53;9.88;;;8.93;;
9413;SDS011;4746;35.664;139.738;2023-06-22T09:02:24;13.07;;;11.82;;
9413;SDS011;4746;35.664;139.738;2023-06-22T09:04:56;11.95;;;10.75;;
9413;SDS011;4746;35.664;139.738;2023-06-22T09:07:24;11.00;;;9.95;;
9413;SDS011;4746;35.664;139.738;2023-06-22T09:09:51;11.50;;;9.55;;
9413;SDS011;4746;35.664;139.738;2023-06-22T09:12:19;11.15;;;9.65;;
9413;SDS011;4746;35.664;139.738;2023-06-22T09:14:51;10.93;;;9.55;;
9413;SDS011;4746;35.664;139.738;2023-06-22T09:17:19;11.40;;;10.27;;
9413;SDS011;4746;35.664;139.738;2023-06-22T09:19:47;10.82;;;9.82;;
9413;SDS011;4746;35.664;139.738;2023-06-22T09:22:15;11.55;;;10.45;;
9413;SDS011;4746;35.664;139.738;2023-06-22T09:24:42;12.52;;;11.52;;
9413;SDS011;4746;35.664;139.738;2023-06-22T09:27:10;13.27;;;12.02;;
9413;SDS011;4746;35.664;139.738;2023-06-22T09:29:37;12.95;;;11.75;;
9413;SDS011;4746;35.664;139.738;2023-06-22T09:32:05;12.68;;;11.60;;
9413;SDS011;4746;35.664;139.738;2023-06-22T09:34:33;12.75;;;11.65;;
9413;SDS011;4746;35.664;139.738;2023-06-22T09:37:00;12.20;;;11.10;;
9413;SDS011;4746;35.664;139.738;2023-06-22T09:39:28;13.15;;;12.05;;
9413;SDS011;4746;35.664;139.738;2023-06-22T09:41:57;14.32;;;12.93;;
9413;SDS011;4746;35.664;139.738;2023-06-22T09:44:26;13.52;;;12.32;;
9413;SDS011;4746;35.664;139.738;2023-06-22T09:46:53;16.17;;;14.77;;
9413;SDS011;4746;35.664;139.738;2023-06-22T09:49:21;16.67;;;15.07;;
9413;SDS011;4746;35.664;139.738;2023-06-22T09:51:48;15.02;;;13.65;;
9413;SDS011;4746;35.664;139.738;2023-06-22T09:54:16;16.42;;;14.93;;
9413;SDS011;4746;35.664;139.738;2023-06-22T09:56:43;15.80;;;14.40;;
9413;SDS011;4746;35.664;139.738;2023-06-22T09:59:11;15.77;;;14.48;;
9413;SDS011;4746;35.664;139.738;2023-06-22T10:01:38;12.52;;;11.52;;
9413;SDS011;4746;35.664;139.738;2023-06-22T10:04:06;14.40;;;12.98;;
9413;SDS011;4746;35.664;139.738;2023-06-22T10:06:33;15.07;;;13.80;;
9413;SDS011;4746;35.664;139.738;2023-06-22T10:09:01;13.77;;;12.60;;
9413;SDS011;4746;35.664;139.738;2023-06-22T10:11:28;13.57;;;12.40;;
9413;SDS011;4746;35.664;139.738;2023-06-22T10:13:56;14.43;;;13.25;;
9413;SDS011;4746;35.664;139.738;2023-06-22T10:16:29;14.93;;;13.68;;
9413;SDS011;4746;35.664;139.738;2023-06-22T10:18:58;15.68;;;14.27;;
9413;SDS011;4746;35.664;139.738;2023-06-22T10:21:25;13.60;;;12.35;;
9413;SDS011;4746;35.664;139.738;2023-06-22T10:23:54;14.15;;;13.10;;
9413;SDS011;4746;35.664;139.738;2023-06-22T10:26:21;14.07;;;12.98;;
9413;SDS011;4746;35.664;139.738;2023-06-22T10:28:49;15.53;;;14.17;;
9413;SDS011;4746;35.664;139.738;2023-06-22T10:31:17;18.23;;;16.52;;
9413;SDS011;4746;35.664;139.738;2023-06-22T10:33:44;19.42;;;17.42;;
9413;SDS011;4746;35.664;139.738;2023-06-22T10:36:15;15.52;;;14.20;;
9413;SDS011;4746;35.664;139.738;2023-06-22T10:38:42;16.48;;;15.13;;
9413;SDS011;4746;35.664;139.738;2023-06-22T10:41:10;16.73;;;15.23;;
9413;SDS011;4746;35.664;139.738;2023-06-22T10:43:38;16.30;;;14.90;;
9413;SDS011;4746;35.664;139.738;2023-06-22T10:46:06;14.65;;;13.45;;
9413;SDS011;4746;35.664;139.738;2023-06-22T10:48:35;16.40;;;14.98;;
9413;SDS011;4746;35.664;139.738;2023-06-22T10:51:02;18.45;;;16.92;;
9413;SDS011;4746;35.664;139.738;2023-06-22T10:53:30;14.90;;;13.77;;
9413;SDS011;4746;35.664;139.738;2023-06-22T10:55:58;14.30;;;13.18;;
9413;SDS011;4746;35.664;139.738;2023-06-22T10:58:25;13.17;;;12.10;;
9413;SDS011;4746;35.664;139.738;2023-06-22T11:00:53;12.77;;;11.68;;
9413;SDS011;4746;35.664;139.738;2023-06-22T11:03:20;13.60;;;12.48;;
9413;SDS011;4746;35.664;139.738;2023-06-22T11:05:48;14.32;;;13.13;;
9413;SDS011;4746;35.664;139.738;2023-06-22T11:08:15;11.27;;;10.47;;
9413;SDS011;4746;35.664;139.738;2023-06-22T11:10:43;10.93;;;10.07;;
9413;SDS011;4746;35.664;139.738;2023-06-22T11:13:11;11.17;;;10.27;;
9413;SDS011;4746;35.664;139.738;2023-06-22T11:15:39;13.33;;;12.10;;
9413;SDS011;4746;35.664;139.738;2023-06-22T11:18:06;13.43;;;12.33;;
9413;SDS011;4746;35.664;139.738;2023-06-22T11:20:34;13.03;;;12.00;;
9413;SDS011;4746;35.664;139.738;2023-06-22T11:23:07;13.50;;;12.47;;
9413;SDS011;4746;35.664;139.738;2023-06-22T11:25:34;13.67;;;12.47;;
9413;SDS011;4746;35.664;139.738;2023-06-22T11:28:03;12.77;;;11.67;;
9413;SDS011;4746;35.664;139.738;2023-06-22T11:30:31;13.73;;;12.53;;
9413;SDS011;4746;35.664;139.738;2023-06-22T11:32:59;13.37;;;12.27;;
9413;SDS011;4746;35.664;139.738;2023-06-22T11:35:27;10.30;;;9.50;;
9413;SDS011;4746;35.664;139.738;2023-06-22T11:37:54;12.27;;;11.27;;
9413;SDS011;4746;35.664;139.738;2023-06-22T11:40:22;11.20;;;10.20;;
9413;SDS011;4746;35.664;139.738;2023-06-22T11:42:49;11.70;;;10.70;;
9413;SDS011;4746;35.664;139.738;2023-06-22T11:45:18;10.23;;;9.43;;
9413;SDS011;4746;35.664;139.738;2023-06-22T11:47:46;10.27;;;9.47;;
9413;SDS011;4746;35.664;139.738;2023-06-22T11:50:13;9.93;;;9.13;;
9413;SDS011;4746;35.664;139.738;2023-06-22T11:52:41;9.90;;;9.10;;
9413;SDS011;4746;35.664;139.738;2023-06-22T11:55:09;10.57;;;9.77;;
9413;SDS011;4746;35.664;139.738;2023-06-22T11:57:37;9.30;;;8.60;;
9413;SDS011;4746;35.664;139.738;2023-06-22T12:00:20;10.20;;;9.33;;
9413;SDS011;4746;35.664;139.738;2023-06-22T12:02:52;8.80;;;8.10;;
9413;SDS011;4746;35.664;139.738;2023-06-22T12:05:20;10.73;;;9.93;;
9413;SDS011;4746;35.664;139.738;2023-06-22T12:07:49;9.93;;;9.13;;
9413;SDS011;4746;35.664;139.738;2023-06-22T12:10:20;8.77;;;8.17;;
9413;SDS011;4746;35.664;139.738;2023-06-22T12:12:51;8.47;;;7.77;;
9413;SDS011;4746;35.664;139.738;2023-06-22T12:15:18;8.00;;;7.40;;
9413;SDS011;4746;35.664;139.738;2023-06-22T12:17:46;8.20;;;7.60;;
9413;SDS011;4746;35.664;139.738;2023-06-22T12:20:15;8.07;;;7.47;;
9413;SDS011;4746;35.664;139.738;2023-06-22T12:22:43;6.93;;;6.43;;
9413;SDS011;4746;35.664;139.738;2023-06-22T12:25:12;7.90;;;7.30;;
9413;SDS011;4746;35.664;139.738;2023-06-22T12:27:40;8.50;;;7.90;;
9413;SDS011;4746;35.664;139.738;2023-06-22T12:30:08;8.53;;;7.93;;
9413;SDS011;4746;35.664;139.738;2023-06-22T12:32:37;9.40;;;8.70;;
9413;SDS011;4746;35.664;139.738;2023-06-22T12:35:04;9.93;;;9.07;;
9413;SDS011;4746;35.664;139.738;2023-06-22T12:37:37;8.30;;;7.70;;
9413;SDS011;4746;35.664;139.738;2023-06-22T12:40:05;7.87;;;7.27;;
9413;SDS011;4746;35.664;139.738;2023-06-22T12:42:34;7.70;;;7.10;;
9413;SDS011;4746;35.664;139.738;2023-06-22T12:45:01;8.10;;;7.40;;
9413;SDS011;4746;35.664;139.738;2023-06-22T12:47:29;9.07;;;8.27;;
9413;SDS011;4746;35.664;139.738;2023-06-22T12:49:57;8.80;;;8.10;;
9413;SDS011;4746;35.664;139.738;2023-06-22T12:52:24;8.00;;;7.30;;
9413;SDS011;4746;35.664;139.738;2023-06-22T12:54:52;7.27;;;6.77;;
9413;SDS011;4746;35.664;139.738;2023-06-22T12:57:19;7.77;;;7.17;;
9413;SDS011;4746;35.664;139.738;2023-06-22T12:59:47;8.07;;;7.37;;
9413;SDS011;4746;35.664;139.738;2023-06-22T13:02:15;7.93;;;7.37;;
9413;SDS011;4746;35.664;139.738;2023-06-22T13:04:43;7.67;;;7.07;;
9413;SDS011;4746;35.664;139.738;2023-06-22T13:07:11;7.67;;;7.07;;
9413;SDS011;4746;35.664;139.738;2023-06-22T13:09:39;7.23;;;6.73;;
9413;SDS011;4746;35.664;139.738;2023-06-22T13:12:06;8.23;;;7.63;;
9413;SDS011;4746;35.664;139.738;2023-06-22T13:14:34;8.07;;;7.40;;
9413;SDS011;4746;35.664;139.738;2023-06-22T13:17:02;7.40;;;6.87;;
9413;SDS011;4746;35.664;139.738;2023-06-22T13:19:29;7.50;;;7.00;;
9413;SDS011;4746;35.664;139.738;2023-06-22T13:21:58;7.07;;;6.53;;
9413;SDS011;4746;35.664;139.738;2023-06-22T13:24:26;6.80;;;6.30;;
9413;SDS011;4746;35.664;139.738;2023-06-22T13:26:53;7.13;;;6.63;;
9413;SDS011;4746;35.664;139.738;2023-06-22T13:29:20;7.70;;;7.10;;
9413;SDS011;4746;35.664;139.738;2023-06-22T13:31:48;7.53;;;6.93;;
9413;SDS011;4746;35.664;139.738;2023-06-22T13:34:15;7.67;;;7.07;;
9413;SDS011;4746;35.664;139.738;2023-06-22T13:36:43;7.93;;;7.33;;
9413;SDS011;4746;35.664;139.738;2023-06-22T13:39:11;8.57;;;7.97;;
9413;SDS011;4746;35.664;139.738;2023-06-22T13:41:39;9.10;;;8.40;;
9413;SDS011;4746;35.664;139.738;2023-06-22T13:44:09;9.30;;;8.60;;
9413;SDS011;4746;35.664;139.738;2023-06-22T13:46:36;8.77;;;8.07;;
9413;SDS011;4746;35.664;139.738;2023-06-22T13:49:04;9.93;;;9.20;;
9413;SDS011;4746;35.664;139.738;2023-06-22T13:51:31;10.23;;;9.43;;
9413;SDS011;4746;35.664;139.738;2023-06-22T13:53:58;10.37;;;9.57;;
9413;SDS011;4746;35.664;139.738;2023-06-22T13:56:27;11.17;;;10.20;;
9413;SDS011;4746;35.664;139.738;2023-06-22T13:58:55;10.83;;;10.03;;
9413;SDS011;4746;35.664;139.738;2023-06-22T14:01:22;11.77;;;10.77;;
9413;SDS011;4746;35.664;139.738;2023-06-22T14:03:50;13.00;;;11.93;;
9413;SDS011;4746;35.664;139.738;2023-06-22T14:06:17;11.03;;;10.20;;
9413;SDS011;4746;35.664;139.738;2023-06-22T14:08:44;12.80;;;11.70;;
9413;SDS011;4746;35.664;139.738;2023-06-22T14:11:12;11.20;;;10.30;;
9413;SDS011;4746;35.664;139.738;2023-06-22T14:13:39;11.30;;;10.43;;
9413;SDS011;4746;35.664;139.738;2023-06-22T14:16:08;11.70;;;10.70;;
9413;SDS011;4746;35.664;139.738;2023-06-22T14:18:37;12.23;;;11.23;;
9413;SDS011;4746;35.664;139.738;2023-06-22T14:21:04;12.10;;;11.10;;
9413;SDS011;4746;35.664;139.738;2023-06-22T14:23:32;12.83;;;11.83;;
9413;SDS011;4746;35.664;139.738;2023-06-22T14:25:59;14.73;;;13.63;;
9413;SDS011;4746;35.664;139.738;2023-06-22T14:28:27;13.70;;;12.60;;
9413;SDS011;4746;35.664;139.738;2023-06-22T14:30:54;14.80;;;13.60;;
9413;SDS011;4746;35.664;139.738;2023-06-22T14:33:22;14.27;;;13.07;;
9413;SDS011;4746;35.664;139.738;2023-06-22T14:35:49;14.60;;;13.40;;
9413;SDS011;4746;35.664;139.738;2023-06-22T14:38:17;12.20;;;11.20;;
9413;SDS011;4746;35.664;139.738;2023-06-22T14:40:45;12.47;;;11.37;;
9413;SDS011;4746;35.664;139.738;2023-06-22T14:43:12;14.30;;;13.10;;
9413;SDS011;4746;35.664;139.738;2023-06-22T14:45:40;14.40;;;13.30;;
9413;SDS011;4746;35.664;139.738;2023-06-22T14:48:08;14.80;;;13.43;;
9413;SDS011;4746;35.664;139.738;2023-06-22T14:50:36;15.60;;;14.30;;
9413;SDS011;4746;35.664;139.738;2023-06-22T14:53:03;15.77;;;14.33;;
9413;SDS011;4746;35.664;139.738;2023-06-22T14:55:31;15.80;;;14.50;;